Winfield, AL (35594)

7:01 AM CDT on March 27, 2015 (GMT -0500)
Bevill State | | Change Station
CLOSE
Current Station
Personal Weather Station
Location: Fayette, AL
Elevation: 423 ft
Nearby Weather Stations
Active Advisory: Freeze Watch

Elev 423 ft 33.73 °N, 87.82 °W | Updated 44 seconds ago

Mostly Cloudy
Mostly Cloudy
40.9 °F
Feels Like 38 °F
N
4.0
Wind Variable Wind from NNW
Gusts 14.0 mph

Today
High -- | Low -- °F
--% Chance of Precip.
Yesterday
High -- | Low -- °F
Precip. -- in
6:45 AM 7:08 PM
First Quarter, 52% visible
Pressure 30.03 in
Visibility 10.0 miles
Clouds Mostly Cloudy 1900 ft
Windchill 38 °F
Dew Point 36 °F
Humidity 81%
Rainfall 0.00 in
Snow Depth Not available.
UV 0 out of 12
Pollen 9.40 out of 12
Air Quality Not available.
Flu Activity Not available.
METAR K1M4 271156Z AUTO 34006KT 10SM BKN019 03/01 A2999 RMK AO2 53013 70012 T00270011 10055 20027 SLP169

More Conditions Fewer Conditions

Pressure 30.03 in
Visibility 10.0 miles
Clouds Mostly Cloudy 1900 ft
Windchill 38 °F
Dew Point 36 °F
Humidity 81%
Rainfall 0.00 in
Snow Depth Not available.
UV 0 out of 12
Pollen 9.40 out of 12
Air Quality Not available.
Flu Activity Not available.
METAR K1M4 271156Z AUTO 34006KT 10SM BKN019 03/01 A2999 RMK AO2 53013 70012 T00270011 10055 20027 SLP169

More Conditions Fewer Conditions

10-Day Weather Forecast

Almanac

Astronomy

Mar. 27, 2015 Rise Set
Actual Time
Civil Twilight
Nautical Twilight
Astronomical Twilight
Moon
Length of Visible Light
Length of Day
Tomorrow will be .
, % of the Moon is Illuminated

Today's Extremes

State Highs State Lows

Community

WunderPhotos

Upload Photos

1,808,711 photos uploaded!

WunderBlogs® & News

Nearby

Air Quality

  Air Quality AQ Index Pollutant
Not available.

Snow Depth

Station Depth Elevation

Earthquake Activity

City Distance Mag. Time & Date
Minimum magnitude displayed is 2.5.

Coastal Water Temperatures

Place Temperature

Stations

Nearby Weather Stations

Station Location Temp. Windchill Dew Point Humidity Wind Precip. Elev Updated Type
                   
Freeze Watch
Statement as of 4:26 AM CDT on March 27, 2015

... Freeze watch in effect from late Saturday night through Sunday
morning...

The National Weather Service in Birmingham has issued a freeze
watch... which is in effect from late Saturday night through
Sunday morning.

* Temperatures... 29 to 32 degrees

* impacts... freezing temperatures could damage tender vegetation.

Precautionary/preparedness actions...

A freeze watch means sub-freezing temperatures are possible.
These conditions could kill crops and other sensitive vegetation.



Mahale